Terminal Aerodrome Forecast
Issued by NWS Sioux Falls, SD

Home | Current Version | Previous Version | Text Only | Print | Product List | Glossary On
Versions: 1 2 3 4 5 6 7 8 9 10 11 12 13 14
975
FTUS43 KFSD 240530
TAFHON
TAF
KHON 240530Z 2406/2506 20007KT P6SM SKC
     FM241500 29010KT P6SM SKC
     FM241700 31020G25KT P6SM SCT120
     FM241800 32025G39KT P6SM FEW040
     FM242300 31011KT P6SM SKC
     FM250200 29007KT P6SM FEW250=

USA.gov is the U.S. government's official web portal to all federal, state and local government web resources and services.